sensor_id;sensor_type;location;lat;lon;timestamp;P1;durP1;ratioP1;P2;durP2;ratioP2
20557;SDS011;10437;48.156;11.530;2023-06-22T00:01:06;13.35;;;3.60;;
20557;SDS011;10437;48.156;11.530;2023-06-22T00:03:33;9.30;;;3.05;;
20557;SDS011;10437;48.156;11.530;2023-06-22T00:06:00;8.30;;;3.17;;
20557;SDS011;10437;48.156;11.530;2023-06-22T00:08:27;11.30;;;3.10;;
20557;SDS011;10437;48.156;11.530;2023-06-22T00:10:54;6.00;;;2.75;;
20557;SDS011;10437;48.156;11.530;2023-06-22T00:13:21;7.68;;;3.63;;
20557;SDS011;10437;48.156;11.530;2023-06-22T00:15:50;11.05;;;3.10;;
20557;SDS011;10437;48.156;11.530;2023-06-22T00:18:16;7.55;;;3.20;;
20557;SDS011;10437;48.156;11.530;2023-06-22T00:20:43;7.53;;;3.30;;
20557;SDS011;10437;48.156;11.530;2023-06-22T00:23:11;10.90;;;3.40;;
20557;SDS011;10437;48.156;11.530;2023-06-22T00:25:41;9.27;;;3.53;;
20557;SDS011;10437;48.156;11.530;2023-06-22T00:28:08;9.68;;;3.50;;
20557;SDS011;10437;48.156;11.530;2023-06-22T00:30:35;8.70;;;3.10;;
20557;SDS011;10437;48.156;11.530;2023-06-22T00:33:04;6.20;;;3.40;;
20557;SDS011;10437;48.156;11.530;2023-06-22T00:35:33;7.63;;;3.10;;
20557;SDS011;10437;48.156;11.530;2023-06-22T00:38:00;10.10;;;3.70;;
20557;SDS011;10437;48.156;11.530;2023-06-22T00:40:28;7.97;;;3.40;;
20557;SDS011;10437;48.156;11.530;2023-06-22T00:42:57;8.77;;;3.58;;
20557;SDS011;10437;48.156;11.530;2023-06-22T00:45:24;9.70;;;3.50;;
20557;SDS011;10437;48.156;11.530;2023-06-22T00:47:51;7.65;;;3.45;;
20557;SDS011;10437;48.156;11.530;2023-06-22T00:50:21;10.57;;;3.53;;
20557;SDS011;10437;48.156;11.530;2023-06-22T00:52:51;6.18;;;2.97;;
20557;SDS011;10437;48.156;11.530;2023-06-22T00:55:19;7.93;;;2.90;;
20557;SDS011;10437;48.156;11.530;2023-06-22T00:57:47;11.00;;;3.50;;
20557;SDS011;10437;48.156;11.530;2023-06-22T01:00:14;5.45;;;3.20;;
20557;SDS011;10437;48.156;11.530;2023-06-22T01:02:42;8.07;;;3.03;;
20557;SDS011;10437;48.156;11.530;2023-06-22T01:05:11;7.80;;;3.40;;
20557;SDS011;10437;48.156;11.530;2023-06-22T01:07:42;8.98;;;3.58;;
20557;SDS011;10437;48.156;11.530;2023-06-22T01:10:18;11.85;;;4.03;;
20557;SDS011;10437;48.156;11.530;2023-06-22T01:12:51;9.27;;;3.50;;
20557;SDS011;10437;48.156;11.530;2023-06-22T01:15:21;9.65;;;3.17;;
20557;SDS011;10437;48.156;11.530;2023-06-22T01:17:53;6.57;;;3.40;;
20557;SDS011;10437;48.156;11.530;2023-06-22T01:20:23;7.55;;;3.20;;
20557;SDS011;10437;48.156;11.530;2023-06-22T01:22:55;10.68;;;3.58;;
20557;SDS011;10437;48.156;11.530;2023-06-22T01:25:31;7.32;;;3.35;;
20557;SDS011;10437;48.156;11.530;2023-06-22T01:28:12;7.82;;;3.30;;
20557;SDS011;10437;48.156;11.530;2023-06-22T01:30:51;10.55;;;3.55;;
20557;SDS011;10437;48.156;11.530;2023-06-22T01:33:28;9.63;;;3.47;;
20557;SDS011;10437;48.156;11.530;2023-06-22T01:35:55;9.18;;;3.03;;
20557;SDS011;10437;48.156;11.530;2023-06-22T01:38:23;7.15;;;2.88;;
20557;SDS011;10437;48.156;11.530;2023-06-22T01:40:50;9.85;;;3.50;;
20557;SDS011;10437;48.156;11.530;2023-06-22T01:43:17;8.40;;;3.00;;
20557;SDS011;10437;48.156;11.530;2023-06-22T01:45:45;7.72;;;3.20;;
20557;SDS011;10437;48.156;11.530;2023-06-22T01:48:13;8.10;;;3.13;;
20557;SDS011;10437;48.156;11.530;2023-06-22T01:50:40;8.55;;;3.10;;
20557;SDS011;10437;48.156;11.530;2023-06-22T01:53:07;7.53;;;2.97;;
20557;SDS011;10437;48.156;11.530;2023-06-22T01:55:35;9.45;;;3.65;;
20557;SDS011;10437;48.156;11.530;2023-06-22T01:58:02;7.60;;;3.30;;
20557;SDS011;10437;48.156;11.530;2023-06-22T02:00:31;6.15;;;3.38;;
20557;SDS011;10437;48.156;11.530;2023-06-22T02:03:01;11.23;;;3.65;;
20557;SDS011;10437;48.156;11.530;2023-06-22T02:05:34;7.93;;;3.35;;
20557;SDS011;10437;48.156;11.530;2023-06-22T02:08:07;7.63;;;2.95;;
20557;SDS011;10437;48.156;11.530;2023-06-22T02:10:38;7.00;;;3.30;;
20557;SDS011;10437;48.156;11.530;2023-06-22T02:13:07;9.23;;;3.30;;
20557;SDS011;10437;48.156;11.530;2023-06-22T02:15:35;6.60;;;3.60;;
20557;SDS011;10437;48.156;11.530;2023-06-22T02:18:02;8.82;;;3.55;;
20557;SDS011;10437;48.156;11.530;2023-06-22T02:20:30;7.55;;;3.60;;
20557;SDS011;10437;48.156;11.530;2023-06-22T02:22:58;8.10;;;3.65;;
20557;SDS011;10437;48.156;11.530;2023-06-22T02:25:25;7.25;;;3.63;;
20557;SDS011;10437;48.156;11.530;2023-06-22T02:27:52;9.32;;;3.75;;
20557;SDS011;10437;48.156;11.530;2023-06-22T02:30:19;9.05;;;3.90;;
20557;SDS011;10437;48.156;11.530;2023-06-22T02:32:46;10.45;;;3.20;;
20557;SDS011;10437;48.156;11.530;2023-06-22T02:35:14;12.02;;;3.97;;
20557;SDS011;10437;48.156;11.530;2023-06-22T02:37:41;7.80;;;3.60;;
20557;SDS011;10437;48.156;11.530;2023-06-22T02:40:09;6.00;;;2.85;;
20557;SDS011;10437;48.156;11.530;2023-06-22T02:42:37;11.32;;;3.90;;
20557;SDS011;10437;48.156;11.530;2023-06-22T02:45:04;10.30;;;3.60;;
20557;SDS011;10437;48.156;11.530;2023-06-22T02:47:32;9.80;;;3.58;;
20557;SDS011;10437;48.156;11.530;2023-06-22T02:49:59;10.48;;;3.72;;
20557;SDS011;10437;48.156;11.530;2023-06-22T02:52:26;9.32;;;3.83;;
20557;SDS011;10437;48.156;11.530;2023-06-22T02:54:53;12.82;;;3.60;;
20557;SDS011;10437;48.156;11.530;2023-06-22T02:57:22;5.95;;;3.25;;
20557;SDS011;10437;48.156;11.530;2023-06-22T02:59:48;8.60;;;3.88;;
20557;SDS011;10437;48.156;11.530;2023-06-22T03:02:16;9.55;;;3.53;;
20557;SDS011;10437;48.156;11.530;2023-06-22T03:04:46;10.50;;;3.67;;
20557;SDS011;10437;48.156;11.530;2023-06-22T03:07:14;10.30;;;4.07;;
20557;SDS011;10437;48.156;11.530;2023-06-22T03:09:42;8.65;;;3.90;;
20557;SDS011;10437;48.156;11.530;2023-06-22T03:12:09;11.27;;;4.00;;
20557;SDS011;10437;48.156;11.530;2023-06-22T03:14:38;6.85;;;3.55;;
20557;SDS011;10437;48.156;11.530;2023-06-22T03:17:05;9.02;;;3.90;;
20557;SDS011;10437;48.156;11.530;2023-06-22T03:19:32;10.13;;;3.63;;
20557;SDS011;10437;48.156;11.530;2023-06-22T03:22:00;11.80;;;3.78;;
20557;SDS011;10437;48.156;11.530;2023-06-22T03:24:27;9.10;;;3.53;;
20557;SDS011;10437;48.156;11.530;2023-06-22T03:26:55;9.93;;;3.70;;
20557;SDS011;10437;48.156;11.530;2023-06-22T03:29:22;8.00;;;3.50;;
20557;SDS011;10437;48.156;11.530;2023-06-22T03:31:51;10.85;;;3.40;;
20557;SDS011;10437;48.156;11.530;2023-06-22T03:34:18;12.07;;;4.30;;
20557;SDS011;10437;48.156;11.530;2023-06-22T03:36:45;8.00;;;3.78;;
20557;SDS011;10437;48.156;11.530;2023-06-22T03:39:12;7.65;;;4.03;;
20557;SDS011;10437;48.156;11.530;2023-06-22T03:41:39;7.32;;;3.50;;
20557;SDS011;10437;48.156;11.530;2023-06-22T03:44:07;9.25;;;3.92;;
20557;SDS011;10437;48.156;11.530;2023-06-22T03:46:37;9.50;;;3.95;;
20557;SDS011;10437;48.156;11.530;2023-06-22T03:49:05;10.60;;;4.13;;
20557;SDS011;10437;48.156;11.530;2023-06-22T03:51:33;8.82;;;3.75;;
20557;SDS011;10437;48.156;11.530;2023-06-22T03:54:00;7.78;;;4.03;;
20557;SDS011;10437;48.156;11.530;2023-06-22T03:56:27;9.88;;;4.65;;
20557;SDS011;10437;48.156;11.530;2023-06-22T03:58:54;14.85;;;4.10;;
20557;SDS011;10437;48.156;11.530;2023-06-22T04:01:21;7.88;;;4.35;;
20557;SDS011;10437;48.156;11.530;2023-06-22T04:03:48;8.75;;;3.60;;
20557;SDS011;10437;48.156;11.530;2023-06-22T04:06:17;8.85;;;4.10;;
20557;SDS011;10437;48.156;11.530;2023-06-22T04:08:45;15.18;;;4.72;;
20557;SDS011;10437;48.156;11.530;2023-06-22T04:11:15;9.52;;;4.20;;
20557;SDS011;10437;48.156;11.530;2023-06-22T04:13:43;16.30;;;4.85;;
20557;SDS011;10437;48.156;11.530;2023-06-22T04:16:10;9.32;;;4.70;;
20557;SDS011;10437;48.156;11.530;2023-06-22T04:18:37;11.88;;;4.57;;
20557;SDS011;10437;48.156;11.530;2023-06-22T04:21:04;11.90;;;4.75;;
20557;SDS011;10437;48.156;11.530;2023-06-22T04:23:33;8.90;;;3.67;;
20557;SDS011;10437;48.156;11.530;2023-06-22T04:26:00;7.78;;;4.43;;
20557;SDS011;10437;48.156;11.530;2023-06-22T04:28:27;12.98;;;4.70;;
20557;SDS011;10437;48.156;11.530;2023-06-22T04:30:54;9.02;;;4.82;;
20557;SDS011;10437;48.156;11.530;2023-06-22T04:33:23;10.48;;;4.00;;
20557;SDS011;10437;48.156;11.530;2023-06-22T04:35:50;8.27;;;4.28;;
20557;SDS011;10437;48.156;11.530;2023-06-22T04:38:17;12.90;;;4.70;;
20557;SDS011;10437;48.156;11.530;2023-06-22T04:40:48;10.70;;;4.13;;
20557;SDS011;10437;48.156;11.530;2023-06-22T04:43:15;13.82;;;4.55;;
20557;SDS011;10437;48.156;11.530;2023-06-22T04:45:42;12.52;;;4.57;;
20557;SDS011;10437;48.156;11.530;2023-06-22T04:48:09;7.78;;;4.18;;
20557;SDS011;10437;48.156;11.530;2023-06-22T04:50:40;10.80;;;4.13;;
20557;SDS011;10437;48.156;11.530;2023-06-22T04:53:09;10.93;;;4.30;;
20557;SDS011;10437;48.156;11.530;2023-06-22T04:55:37;12.40;;;4.38;;
20557;SDS011;10437;48.156;11.530;2023-06-22T04:58:12;9.80;;;3.97;;
20557;SDS011;10437;48.156;11.530;2023-06-22T05:00:38;8.88;;;3.95;;
20557;SDS011;10437;48.156;11.530;2023-06-22T05:03:05;14.25;;;4.45;;
20557;SDS011;10437;48.156;11.530;2023-06-22T05:05:36;12.13;;;4.50;;
20557;SDS011;10437;48.156;11.530;2023-06-22T05:08:03;7.72;;;4.18;;
20557;SDS011;10437;48.156;11.530;2023-06-22T05:10:32;11.93;;;5.40;;
20557;SDS011;10437;48.156;11.530;2023-06-22T05:12:59;15.02;;;5.03;;
20557;SDS011;10437;48.156;11.530;2023-06-22T05:15:27;11.20;;;4.25;;
20557;SDS011;10437;48.156;11.530;2023-06-22T05:17:55;14.57;;;4.90;;
20557;SDS011;10437;48.156;11.530;2023-06-22T05:20:23;16.65;;;5.40;;
20557;SDS011;10437;48.156;11.530;2023-06-22T05:22:50;11.35;;;5.45;;
20557;SDS011;10437;48.156;11.530;2023-06-22T05:25:17;11.40;;;5.00;;
20557;SDS011;10437;48.156;11.530;2023-06-22T05:27:45;13.68;;;5.20;;
20557;SDS011;10437;48.156;11.530;2023-06-22T05:30:12;11.25;;;4.90;;
20557;SDS011;10437;48.156;11.530;2023-06-22T05:32:42;16.63;;;5.68;;
20557;SDS011;10437;48.156;11.530;2023-06-22T05:35:09;19.92;;;5.85;;
20557;SDS011;10437;48.156;11.530;2023-06-22T05:37:36;12.93;;;5.32;;
20557;SDS011;10437;48.156;11.530;2023-06-22T05:40:04;15.38;;;5.50;;
20557;SDS011;10437;48.156;11.530;2023-06-22T05:42:32;13.05;;;5.25;;
20557;SDS011;10437;48.156;11.530;2023-06-22T05:44:59;12.32;;;5.10;;
20557;SDS011;10437;48.156;11.530;2023-06-22T05:47:26;12.88;;;5.60;;
20557;SDS011;10437;48.156;11.530;2023-06-22T05:49:55;15.25;;;5.80;;
20557;SDS011;10437;48.156;11.530;2023-06-22T05:52:21;15.02;;;5.60;;
20557;SDS011;10437;48.156;11.530;2023-06-22T05:54:49;12.15;;;6.13;;
20557;SDS011;10437;48.156;11.530;2023-06-22T05:57:16;14.00;;;5.38;;
20557;SDS011;10437;48.156;11.530;2023-06-22T05:59:43;14.00;;;5.63;;
20557;SDS011;10437;48.156;11.530;2023-06-22T06:02:10;18.08;;;5.75;;
20557;SDS011;10437;48.156;11.530;2023-06-22T06:04:37;12.15;;;5.22;;
20557;SDS011;10437;48.156;11.530;2023-06-22T06:07:06;12.32;;;5.70;;
20557;SDS011;10437;48.156;11.530;2023-06-22T06:09:33;11.52;;;5.15;;
20557;SDS011;10437;48.156;11.530;2023-06-22T06:12:00;12.15;;;5.00;;
20557;SDS011;10437;48.156;11.530;2023-06-22T06:14:29;11.90;;;5.55;;
20557;SDS011;10437;48.156;11.530;2023-06-22T06:16:56;13.13;;;5.55;;
20557;SDS011;10437;48.156;11.530;2023-06-22T06:19:23;14.15;;;5.80;;
20557;SDS011;10437;48.156;11.530;2023-06-22T06:21:50;16.77;;;5.35;;
20557;SDS011;10437;48.156;11.530;2023-06-22T06:24:19;13.73;;;5.90;;
20557;SDS011;10437;48.156;11.530;2023-06-22T06:26:46;12.68;;;5.45;;
20557;SDS011;10437;48.156;11.530;2023-06-22T06:29:13;12.82;;;6.10;;
20557;SDS011;10437;48.156;11.530;2023-06-22T06:31:41;16.92;;;5.93;;
20557;SDS011;10437;48.156;11.530;2023-06-22T06:34:09;14.32;;;5.60;;
20557;SDS011;10437;48.156;11.530;2023-06-22T06:36:36;13.85;;;6.55;;
20557;SDS011;10437;48.156;11.530;2023-06-22T06:39:03;18.27;;;6.63;;
20557;SDS011;10437;48.156;11.530;2023-06-22T06:41:31;18.23;;;6.45;;
20557;SDS011;10437;48.156;11.530;2023-06-22T06:43:58;14.85;;;5.60;;
20557;SDS011;10437;48.156;11.530;2023-06-22T06:46:25;22.05;;;6.80;;
20557;SDS011;10437;48.156;11.530;2023-06-22T06:48:53;20.73;;;6.50;;
20557;SDS011;10437;48.156;11.530;2023-06-22T06:51:20;12.10;;;5.90;;
20557;SDS011;10437;48.156;11.530;2023-06-22T06:53:47;17.35;;;6.50;;
20557;SDS011;10437;48.156;11.530;2023-06-22T06:56:14;13.88;;;6.32;;
20557;SDS011;10437;48.156;11.530;2023-06-22T06:58:42;14.13;;;6.30;;
20557;SDS011;10437;48.156;11.530;2023-06-22T07:01:10;16.27;;;5.72;;
20557;SDS011;10437;48.156;11.530;2023-06-22T07:03:37;16.17;;;6.00;;
20557;SDS011;10437;48.156;11.530;2023-06-22T07:06:04;13.75;;;5.85;;
20557;SDS011;10437;48.156;11.530;2023-06-22T07:08:31;16.95;;;6.68;;
20557;SDS011;10437;48.156;11.530;2023-06-22T07:11:00;15.45;;;6.68;;
20557;SDS011;10437;48.156;11.530;2023-06-22T07:13:27;12.25;;;6.10;;
20557;SDS011;10437;48.156;11.530;2023-06-22T07:15:55;13.95;;;5.82;;
20557;SDS011;10437;48.156;11.530;2023-06-22T07:18:23;17.05;;;5.78;;
20557;SDS011;10437;48.156;11.530;2023-06-22T07:20:51;17.65;;;6.22;;
20557;SDS011;10437;48.156;11.530;2023-06-22T07:23:18;16.70;;;5.72;;
20557;SDS011;10437;48.156;11.530;2023-06-22T07:25:45;18.58;;;6.43;;
20557;SDS011;10437;48.156;11.530;2023-06-22T07:28:12;12.63;;;5.95;;
20557;SDS011;10437;48.156;11.530;2023-06-22T07:30:40;16.83;;;5.68;;
20557;SDS011;10437;48.156;11.530;2023-06-22T07:33:08;15.27;;;5.75;;
20557;SDS011;10437;48.156;11.530;2023-06-22T07:35:35;18.73;;;7.35;;
20557;SDS011;10437;48.156;11.530;2023-06-22T07:38:02;12.50;;;6.18;;
20557;SDS011;10437;48.156;11.530;2023-06-22T07:40:29;13.50;;;6.35;;
20557;SDS011;10437;48.156;11.530;2023-06-22T07:42:56;15.90;;;6.05;;
20557;SDS011;10437;48.156;11.530;2023-06-22T07:45:24;13.23;;;5.85;;
20557;SDS011;10437;48.156;11.530;2023-06-22T07:47:51;12.60;;;6.20;;
20557;SDS011;10437;48.156;11.530;2023-06-22T07:50:19;18.27;;;6.28;;
20557;SDS011;10437;48.156;11.530;2023-06-22T07:52:46;13.88;;;5.72;;
20557;SDS011;10437;48.156;11.530;2023-06-22T07:55:13;15.85;;;5.70;;
20557;SDS011;10437;48.156;11.530;2023-06-22T07:57:40;14.02;;;6.00;;
20557;SDS011;10437;48.156;11.530;2023-06-22T08:00:08;14.35;;;5.80;;
20557;SDS011;10437;48.156;11.530;2023-06-22T08:02:40;14.50;;;6.72;;
20557;SDS011;10437;48.156;11.530;2023-06-22T08:05:08;16.45;;;6.38;;
20557;SDS011;10437;48.156;11.530;2023-06-22T08:07:37;10.55;;;5.53;;
20557;SDS011;10437;48.156;11.530;2023-06-22T08:10:04;12.95;;;6.07;;
20557;SDS011;10437;48.156;11.530;2023-06-22T08:12:32;15.73;;;6.00;;
20557;SDS011;10437;48.156;11.530;2023-06-22T08:14:59;13.57;;;6.18;;
20557;SDS011;10437;48.156;11.530;2023-06-22T08:17:26;18.02;;;6.05;;
20557;SDS011;10437;48.156;11.530;2023-06-22T08:19:53;14.15;;;6.07;;
20557;SDS011;10437;48.156;11.530;2023-06-22T08:22:21;19.60;;;6.35;;
20557;SDS011;10437;48.156;11.530;2023-06-22T08:24:49;11.85;;;5.82;;
20557;SDS011;10437;48.156;11.530;2023-06-22T08:27:16;14.05;;;6.32;;
20557;SDS011;10437;48.156;11.530;2023-06-22T08:29:46;15.07;;;6.47;;
20557;SDS011;10437;48.156;11.530;2023-06-22T08:32:13;13.77;;;6.18;;
20557;SDS011;10437;48.156;11.530;2023-06-22T08:34:40;20.50;;;6.70;;
20557;SDS011;10437;48.156;11.530;2023-06-22T08:37:08;19.17;;;6.43;;
20557;SDS011;10437;48.156;11.530;2023-06-22T08:39:35;16.05;;;6.43;;
20557;SDS011;10437;48.156;11.530;2023-06-22T08:42:04;13.27;;;5.97;;
20557;SDS011;10437;48.156;11.530;2023-06-22T08:44:31;16.83;;;5.80;;
20557;SDS011;10437;48.156;11.530;2023-06-22T08:46:58;16.42;;;6.40;;
20557;SDS011;10437;48.156;11.530;2023-06-22T08:49:25;16.70;;;6.32;;
20557;SDS011;10437;48.156;11.530;2023-06-22T08:51:53;15.75;;;6.28;;
20557;SDS011;10437;48.156;11.530;2023-06-22T08:54:21;18.20;;;6.57;;
20557;SDS011;10437;48.156;11.530;2023-06-22T08:56:49;13.98;;;5.97;;
20557;SDS011;10437;48.156;11.530;2023-06-22T08:59:17;14.27;;;5.88;;
20557;SDS011;10437;48.156;11.530;2023-06-22T09:01:44;16.33;;;6.60;;
20557;SDS011;10437;48.156;11.530;2023-06-22T09:04:13;12.68;;;6.00;;
20557;SDS011;10437;48.156;11.530;2023-06-22T09:06:40;14.07;;;6.32;;
20557;SDS011;10437;48.156;11.530;2023-06-22T09:09:10;15.02;;;5.68;;
20557;SDS011;10437;48.156;11.530;2023-06-22T09:11:37;11.60;;;5.72;;
20557;SDS011;10437;48.156;11.530;2023-06-22T09:14:04;14.77;;;5.57;;
20557;SDS011;10437;48.156;11.530;2023-06-22T09:16:33;16.02;;;6.38;;
20557;SDS011;10437;48.156;11.530;2023-06-22T09:19:00;15.85;;;5.50;;
20557;SDS011;10437;48.156;11.530;2023-06-22T09:21:28;17.17;;;6.32;;
20557;SDS011;10437;48.156;11.530;2023-06-22T09:23:55;16.50;;;6.65;;
20557;SDS011;10437;48.156;11.530;2023-06-22T09:26:22;17.45;;;5.82;;
20557;SDS011;10437;48.156;11.530;2023-06-22T09:28:50;19.42;;;6.47;;
20557;SDS011;10437;48.156;11.530;2023-06-22T09:31:17;19.35;;;6.32;;
20557;SDS011;10437;48.156;11.530;2023-06-22T09:33:51;14.70;;;5.93;;
20557;SDS011;10437;48.156;11.530;2023-06-22T09:36:19;20.52;;;6.25;;
20557;SDS011;10437;48.156;11.530;2023-06-22T09:38:47;17.15;;;6.15;;
20557;SDS011;10437;48.156;11.530;2023-06-22T09:41:17;17.02;;;6.32;;
20557;SDS011;10437;48.156;11.530;2023-06-22T09:43:44;16.27;;;6.22;;
20557;SDS011;10437;48.156;11.530;2023-06-22T09:46:13;19.90;;;6.40;;
20557;SDS011;10437;48.156;11.530;2023-06-22T09:48:40;19.27;;;6.07;;
20557;SDS011;10437;48.156;11.530;2023-06-22T09:51:08;13.68;;;6.07;;
20557;SDS011;10437;48.156;11.530;2023-06-22T09:53:35;19.40;;;6.68;;
20557;SDS011;10437;48.156;11.530;2023-06-22T09:56:03;15.05;;;6.15;;
20557;SDS011;10437;48.156;11.530;2023-06-22T09:58:31;14.93;;;6.65;;
20557;SDS011;10437;48.156;11.530;2023-06-22T10:00:58;14.63;;;6.13;;
20557;SDS011;10437;48.156;11.530;2023-06-22T10:03:25;14.65;;;6.38;;
20557;SDS011;10437;48.156;11.530;2023-06-22T10:05:52;14.15;;;6.00;;
20557;SDS011;10437;48.156;11.530;2023-06-22T10:08:21;15.40;;;6.75;;
20557;SDS011;10437;48.156;11.530;2023-06-22T10:10:47;16.63;;;6.20;;
20557;SDS011;10437;48.156;11.530;2023-06-22T10:13:15;13.48;;;6.05;;
20557;SDS011;10437;48.156;11.530;2023-06-22T10:15:42;19.40;;;6.72;;
20557;SDS011;10437;48.156;11.530;2023-06-22T10:18:14;17.42;;;6.55;;
20557;SDS011;10437;48.156;11.530;2023-06-22T10:20:41;17.33;;;6.70;;
20557;SDS011;10437;48.156;11.530;2023-06-22T10:23:08;16.08;;;6.57;;
20557;SDS011;10437;48.156;11.530;2023-06-22T10:25:37;13.68;;;6.18;;
20557;SDS011;10437;48.156;11.530;2023-06-22T10:28:04;16.60;;;6.65;;
20557;SDS011;10437;48.156;11.530;2023-06-22T10:30:31;14.48;;;6.20;;
20557;SDS011;10437;48.156;11.530;2023-06-22T10:32:58;21.10;;;6.63;;
20557;SDS011;10437;48.156;11.530;2023-06-22T10:35:25;20.75;;;6.53;;
20557;SDS011;10437;48.156;11.530;2023-06-22T10:37:52;18.58;;;6.18;;
20557;SDS011;10437;48.156;11.530;2023-06-22T10:40:21;12.65;;;6.03;;
20557;SDS011;10437;48.156;11.530;2023-06-22T10:42:49;18.42;;;6.72;;
20557;SDS011;10437;48.156;11.530;2023-06-22T10:45:16;13.38;;;5.80;;
20557;SDS011;10437;48.156;11.530;2023-06-22T10:47:43;19.90;;;6.10;;
20557;SDS011;10437;48.156;11.530;2023-06-22T10:50:10;19.98;;;6.30;;
20557;SDS011;10437;48.156;11.530;2023-06-22T10:52:37;15.05;;;5.70;;
20557;SDS011;10437;48.156;11.530;2023-06-22T10:55:05;11.45;;;5.75;;
20557;SDS011;10437;48.156;11.530;2023-06-22T10:57:32;22.73;;;6.63;;
20557;SDS011;10437;48.156;11.530;2023-06-22T11:00:01;14.45;;;6.10;;
20557;SDS011;10437;48.156;11.530;2023-06-22T11:02:30;23.55;;;5.97;;
20557;SDS011;10437;48.156;11.530;2023-06-22T11:04:57;19.30;;;6.20;;
20557;SDS011;10437;48.156;11.530;2023-06-22T11:07:25;15.18;;;5.85;;
20557;SDS011;10437;48.156;11.530;2023-06-22T11:09:53;15.13;;;5.85;;
20557;SDS011;10437;48.156;11.530;2023-06-22T11:12:21;15.65;;;6.22;;
20557;SDS011;10437;48.156;11.530;2023-06-22T11:14:48;16.02;;;6.28;;
20557;SDS011;10437;48.156;11.530;2023-06-22T11:17:18;11.43;;;5.57;;
20557;SDS011;10437;48.156;11.530;2023-06-22T11:19:44;16.95;;;5.70;;
20557;SDS011;10437;48.156;11.530;2023-06-22T11:22:12;15.48;;;6.32;;
20557;SDS011;10437;48.156;11.530;2023-06-22T11:24:39;15.93;;;5.90;;
20557;SDS011;10437;48.156;11.530;2023-06-22T11:27:06;18.63;;;6.55;;
20557;SDS011;10437;48.156;11.530;2023-06-22T11:29:33;13.18;;;5.85;;
20557;SDS011;10437;48.156;11.530;2023-06-22T11:32:00;13.73;;;5.72;;
20557;SDS011;10437;48.156;11.530;2023-06-22T11:34:29;17.48;;;6.20;;
20557;SDS011;10437;48.156;11.530;2023-06-22T11:36:56;15.80;;;6.00;;
20557;SDS011;10437;48.156;11.530;2023-06-22T11:39:23;21.25;;;6.63;;
20557;SDS011;10437;48.156;11.530;2023-06-22T11:41:50;14.80;;;6.93;;
20557;SDS011;10437;48.156;11.530;2023-06-22T11:44:17;23.25;;;6.10;;
20557;SDS011;10437;48.156;11.530;2023-06-22T11:46:45;16.17;;;5.90;;
20557;SDS011;10437;48.156;11.530;2023-06-22T11:49:13;16.30;;;6.00;;
20557;SDS011;10437;48.156;11.530;2023-06-22T11:51:41;20.05;;;5.80;;
20557;SDS011;10437;48.156;11.530;2023-06-22T11:54:08;17.85;;;5.88;;
20557;SDS011;10437;48.156;11.530;2023-06-22T11:56:35;15.88;;;6.13;;
20557;SDS011;10437;48.156;11.530;2023-06-22T11:59:03;14.68;;;6.13;;
20557;SDS011;10437;48.156;11.530;2023-06-22T12:01:30;17.25;;;6.10;;
20557;SDS011;10437;48.156;11.530;2023-06-22T12:03:58;16.13;;;5.55;;
20557;SDS011;10437;48.156;11.530;2023-06-22T12:06:25;17.10;;;6.85;;
20557;SDS011;10437;48.156;11.530;2023-06-22T12:08:54;15.82;;;6.18;;
20557;SDS011;10437;48.156;11.530;2023-06-22T12:11:20;20.13;;;6.60;;
20557;SDS011;10437;48.156;11.530;2023-06-22T12:13:47;16.58;;;6.13;;
20557;SDS011;10437;48.156;11.530;2023-06-22T12:16:15;15.65;;;6.28;;
20557;SDS011;10437;48.156;11.530;2023-06-22T12:18:42;15.75;;;7.68;;
20557;SDS011;10437;48.156;11.530;2023-06-22T12:21:09;20.02;;;6.30;;
20557;SDS011;10437;48.156;11.530;2023-06-22T12:23:36;17.85;;;6.70;;
20557;SDS011;10437;48.156;11.530;2023-06-22T12:26:05;15.63;;;6.38;;
20557;SDS011;10437;48.156;11.530;2023-06-22T12:28:31;20.33;;;7.20;;
20557;SDS011;10437;48.156;11.530;2023-06-22T12:30:58;16.83;;;6.13;;
20557;SDS011;10437;48.156;11.530;2023-06-22T12:33:26;17.33;;;6.45;;
20557;SDS011;10437;48.156;11.530;2023-06-22T12:35:53;13.95;;;5.95;;
20557;SDS011;10437;48.156;11.530;2023-06-22T12:38:20;17.17;;;6.05;;
20557;SDS011;10437;48.156;11.530;2023-06-22T12:40:47;15.38;;;6.13;;
20557;SDS011;10437;48.156;11.530;2023-06-22T12:43:15;19.50;;;5.90;;
20557;SDS011;10437;48.156;11.530;2023-06-22T12:45:42;16.13;;;5.55;;
20557;SDS011;10437;48.156;11.530;2023-06-22T12:48:10;16.05;;;6.28;;
20557;SDS011;10437;48.156;11.530;2023-06-22T12:50:37;20.30;;;6.20;;
20557;SDS011;10437;48.156;11.530;2023-06-22T12:53:04;15.63;;;5.93;;
20557;SDS011;10437;48.156;11.530;2023-06-22T12:55:32;12.50;;;5.70;;
20557;SDS011;10437;48.156;11.530;2023-06-22T12:57:59;11.95;;;5.53;;
20557;SDS011;10437;48.156;11.530;2023-06-22T13:00:27;17.90;;;6.20;;
20557;SDS011;10437;48.156;11.530;2023-06-22T13:02:54;17.40;;;6.30;;
20557;SDS011;10437;48.156;11.530;2023-06-22T13:05:21;13.52;;;5.68;;
20557;SDS011;10437;48.156;11.530;2023-06-22T13:07:48;12.73;;;6.05;;
20557;SDS011;10437;48.156;11.530;2023-06-22T13:10:15;19.90;;;6.07;;
20557;SDS011;10437;48.156;11.530;2023-06-22T13:12:42;17.98;;;6.70;;
20557;SDS011;10437;48.156;11.530;2023-06-22T13:15:10;16.25;;;5.95;;
20557;SDS011;10437;48.156;11.530;2023-06-22T13:17:38;13.50;;;6.20;;
20557;SDS011;10437;48.156;11.530;2023-06-22T13:20:05;15.63;;;5.72;;
20557;SDS011;10437;48.156;11.530;2023-06-22T13:22:33;15.63;;;5.75;;
20557;SDS011;10437;48.156;11.530;2023-06-22T13:25:05;16.70;;;5.80;;
20557;SDS011;10437;48.156;11.530;2023-06-22T13:27:33;13.98;;;5.68;;
20557;SDS011;10437;48.156;11.530;2023-06-22T13:30:00;17.17;;;5.72;;
20557;SDS011;10437;48.156;11.530;2023-06-22T13:32:27;18.02;;;5.90;;
20557;SDS011;10437;48.156;11.530;2023-06-22T13:34:56;15.60;;;5.65;;
20557;SDS011;10437;48.156;11.530;2023-06-22T13:37:23;13.98;;;5.65;;
20557;SDS011;10437;48.156;11.530;2023-06-22T13:39:50;14.13;;;6.13;;
20557;SDS011;10437;48.156;11.530;2023-06-22T13:42:17;14.27;;;6.28;;
20557;SDS011;10437;48.156;11.530;2023-06-22T13:44:44;16.50;;;5.80;;
20557;SDS011;10437;48.156;11.530;2023-06-22T13:47:12;15.30;;;5.10;;
20557;SDS011;10437;48.156;11.530;2023-06-22T13:49:39;18.85;;;5.78;;
20557;SDS011;10437;48.156;11.530;2023-06-22T13:52:07;12.38;;;5.30;;
20557;SDS011;10437;48.156;11.530;2023-06-22T13:54:37;15.52;;;5.75;;
20557;SDS011;10437;48.156;11.530;2023-06-22T13:57:05;12.63;;;5.22;;
20557;SDS011;10437;48.156;11.530;2023-06-22T13:59:32;18.80;;;5.80;;
20557;SDS011;10437;48.156;11.530;2023-06-22T14:01:59;14.43;;;6.07;;
20557;SDS011;10437;48.156;11.530;2023-06-22T14:04:27;12.48;;;5.47;;
20557;SDS011;10437;48.156;11.530;2023-06-22T14:06:54;11.30;;;5.30;;
20557;SDS011;10437;48.156;11.530;2023-06-22T14:09:23;15.80;;;5.55;;
20557;SDS011;10437;48.156;11.530;2023-06-22T14:11:50;12.07;;;5.35;;
20557;SDS011;10437;48.156;11.530;2023-06-22T14:14:17;15.70;;;6.00;;
20557;SDS011;10437;48.156;11.530;2023-06-22T14:16:44;14.48;;;5.57;;
20557;SDS011;10437;48.156;11.530;2023-06-22T14:19:12;17.80;;;5.30;;
20557;SDS011;10437;48.156;11.530;2023-06-22T14:21:40;15.75;;;5.25;;
20557;SDS011;10437;48.156;11.530;2023-06-22T14:24:07;15.60;;;6.10;;
20557;SDS011;10437;48.156;11.530;2023-06-22T14:26:36;15.18;;;5.35;;